Tervetuloa sivustolle Rescue.fi 07.02.2023 kello 12:14

Rescue.fi

Ensimmäinen kunnon syysmyrsky saapuu Suomeen

Page navigation


Status: offline

GSG9

Forum User
Dirika
Registered: 04/22/05
Posts: 515
209 Lyhyt referaatti seuraavasta, ala lienee tuttu? METAR EFHF 271820Z AUTO 09012KT 060V130 CAVOK M02/M06 Q1010
Avaritia prima scelerum mater
 Quote

Status: offline

209

Forum User
Ministeri
Registered: 02/20/04
Posts: 1287
Metar tarkoittaa tämän hetkistä säätilaa kyseisellä paikalla (TAF on sitten terminal area forecast ja samanlainen numero-kirjainhässäkkä) Mutta tuo laittamasi on seuraava: METAR EFHF 271820Z AUTO 09012KT 060V130 CAVOK M02/M06 Q1010 EFHF = Helsinki Malmi (Vantaa on EFHK) 27 maaliskuuta klo 18.20 Zulu eli UTC-aikaa (Metar on aina puoli tuntia voimassa ellei tule jotain dramaattista muutosta säähän sinä aikana) AUTO = automaattisen sääaseman tiedot 090 = tuulen suunta = idästä 12KT = 12 solmua eli jakaa kahdella saa metrejä sekunnissa 060V130 = tuulen suunnan vaihteluväli 060 ja 130 asteen välillä CAVOK = Ceiling and visibility ok eli ei pilviä alle 5000 jalan ja näkyvyys yli 10 km. M2/M06 = lämpötila -2C kastepiste -6C Q1010 = QNH eli suhteellinen ilmanpaine merenpinnan tasolla 1010 (ns. normaali ilmanpaine on 1013,2) Auttoko?
Toimii kaljana, autona ja linnana - WARTBURG. Ajat mukavammin - elät leveämmin!
 Quote

Status: offline

GSG9

Forum User
Dirika
Registered: 04/22/05
Posts: 515
Siis ihan mielenkiinnosta kysyin. Lähinnä halusin tietää mitä tietoja metar-sanomat sisältää. Hieman ehkä tarkempi tuo tieto säästä kuin, normi-immeisten säätietotus. Ei pidä ymmärtää että, lentäjät olisi muuta kuin normi kansalaisia
Avaritia prima scelerum mater
 Quote

Status: offline

209

Forum User
Ministeri
Registered: 02/20/04
Posts: 1287
Joo kun aikanaan opin noita metareita ja taffeja tulkitsemaan niin aika vähälle on jäänyt ylen uutisten sään katsominen... Noilla ilmailusäillä kun on tapana pitää paikkansa. Ei ole mitkään mettemannoset tai anneboriströmit arpomassa että sataako huomenna vaiko kenties paistaa. Forecahan nuo ilmailun säätkin tekee, mutta ilmeisesti eri osasto kuin nämä telkkarin vastaavat.
Toimii kaljana, autona ja linnana - WARTBURG. Ajat mukavammin - elät leveämmin!
 Quote

Status: offline

Admin

Site Admin
Admin
Registered: 01/01/02
Posts: 1678
http://www.rescue.fi/weather/index.php?icao=EFHK&language=en oottakeee, mää yritän tehdä tosta blockin tohon etusivulle...
FRN Networks - Global Solutions
 Quote

Status: offline

GSG9

Forum User
Dirika
Registered: 04/22/05
Posts: 515
Eiköhän tempasta tonne linkit osioon kattava linkkipaketti sääsivustoista, meillä jha muualla?
Avaritia prima scelerum mater
 Quote

Page navigation

All times are UTC. The time is now 12:14 PM.

  • Normal Topic
  • Sticky Topic
  • Locked Topic
  • New Post
  • Sticky Topic W/ New Post
  • Locked Topic W/ New Post
  •  View Anonymous Posts
  •  Anonymous users can post
  •  Full HTML Allowed
  •  Censored Content